createdAt,value
2022-07-27T00:00:11.134Z,47.67
2022-07-27T00:02:59.598Z,47.69
2022-07-27T00:05:44.879Z,47.75
2022-07-27T00:08:30.392Z,47.87
2022-07-27T00:11:15.640Z,48.03
2022-07-27T00:14:00.838Z,48.41
2022-07-27T00:16:46.249Z,48.65
2022-07-27T00:19:31.378Z,48.62
2022-07-27T00:22:17.160Z,49.16
2022-07-27T00:25:02.288Z,49.44
2022-07-27T00:27:47.730Z,49.16
2022-07-27T00:30:32.933Z,49.13
2022-07-27T00:33:18.030Z,49.58
2022-07-27T00:36:03.481Z,49.46
2022-07-27T00:38:48.965Z,49.81
2022-07-27T00:41:34.422Z,49.92
2022-07-27T00:44:30.512Z,50.10
2022-07-27T00:47:16.167Z,50.01
2022-07-27T00:50:02.116Z,50.18
2022-07-27T00:52:48.612Z,50.07
2022-07-27T00:55:34.636Z,50.08
2022-07-27T00:58:20.102Z,50.22
2022-07-27T01:01:06.344Z,50.25
2022-07-27T01:03:51.699Z,50.33
2022-07-27T01:06:37.280Z,50.57
2022-07-27T01:09:42.040Z,50.19
2022-07-27T01:12:32.218Z,50.21
2022-07-27T01:15:17.890Z,50.70
2022-07-27T01:18:03.862Z,50.14
2022-07-27T01:20:49.235Z,50.71
2022-07-27T01:23:35.132Z,50.51
2022-07-27T01:26:20.514Z,50.50
2022-07-27T01:29:05.804Z,50.63
2022-07-27T01:31:51.150Z,50.60
2022-07-27T01:34:37.006Z,50.72
2022-07-27T01:37:22.219Z,50.88
2022-07-27T01:40:08.098Z,50.69
2022-07-27T01:42:53.420Z,50.59
2022-07-27T01:45:39.970Z,50.61
2022-07-27T01:48:26.357Z,50.96
2022-07-27T01:51:11.773Z,51.05
2022-07-27T01:53:57.133Z,50.80
2022-07-27T01:56:42.396Z,50.93
2022-07-27T01:59:27.732Z,50.78
2022-07-27T02:02:15.648Z,51.05
2022-07-27T02:05:01.595Z,51.05
2022-07-27T02:07:47.503Z,51.24
2022-07-27T02:10:33.731Z,51.41
2022-07-27T02:13:22.865Z,51.41
2022-07-27T02:16:09.743Z,51.23
2022-07-27T02:19:04.823Z,51.26
2022-07-27T02:21:51.057Z,51.21
2022-07-27T02:24:37.948Z,51.36
2022-07-27T02:27:23.348Z,51.55
2022-07-27T02:30:10.642Z,51.41
2022-07-27T02:32:56.295Z,51.61
2022-07-27T02:35:41.535Z,51.29
2022-07-27T02:38:26.879Z,51.27
2022-07-27T02:41:12.141Z,51.64
2022-07-27T02:43:57.505Z,51.36
2022-07-27T02:46:43.287Z,51.20
2022-07-27T02:49:28.486Z,51.53
2022-07-27T02:52:13.827Z,51.27
2022-07-27T02:54:59.096Z,51.48
2022-07-27T02:57:44.512Z,51.38
2022-07-27T03:00:29.715Z,51.12
2022-07-27T03:03:15.195Z,51.09
2022-07-27T03:06:00.466Z,51.08
2022-07-27T03:08:45.840Z,51.32
2022-07-27T03:11:31.459Z,51.44
2022-07-27T03:14:16.948Z,51.42
2022-07-27T03:17:02.347Z,51.61
2022-07-27T03:19:49.757Z,51.35
2022-07-27T03:22:35.212Z,51.61
2022-07-27T03:25:20.812Z,51.14
2022-07-27T03:28:06.296Z,51.25
2022-07-27T03:30:51.693Z,51.23
2022-07-27T03:33:37.280Z,50.92
2022-07-27T03:36:22.865Z,50.86
2022-07-27T03:39:08.206Z,51.18
2022-07-27T03:41:54.240Z,50.97
2022-07-27T03:44:39.676Z,51.07
2022-07-27T03:47:25.059Z,50.63
2022-07-27T03:50:10.671Z,50.89
2022-07-27T03:52:56.337Z,50.59
2022-07-27T03:55:41.657Z,50.52
2022-07-27T03:58:26.911Z,50.47
2022-07-27T04:01:12.429Z,50.24
2022-07-27T04:03:57.664Z,50.57
2022-07-27T04:06:43.515Z,50.40
2022-07-27T04:09:28.873Z,50.55
2022-07-27T04:12:17.396Z,50.24
2022-07-27T04:15:07.114Z,50.57
2022-07-27T04:17:54.550Z,50.25
2022-07-27T04:20:42.561Z,50.25
2022-07-27T04:23:28.064Z,50.06
2022-07-27T04:26:13.270Z,50.04
2022-07-27T04:28:58.761Z,50.28
2022-07-27T04:31:45.585Z,50.22
2022-07-27T04:34:31.424Z,50.01
2022-07-27T04:37:17.206Z,49.88
2022-07-27T04:40:03.283Z,49.85
2022-07-27T04:42:49.815Z,49.81
2022-07-27T04:45:35.641Z,50.14
2022-07-27T04:48:20.981Z,49.81
2022-07-27T04:51:06.292Z,49.68
2022-07-27T04:53:58.233Z,49.71
2022-07-27T04:56:44.263Z,49.73
2022-07-27T04:59:29.418Z,49.71
2022-07-27T05:02:14.882Z,49.55
2022-07-27T05:05:00.740Z,49.34
2022-07-27T05:07:46.127Z,49.42
2022-07-27T05:10:31.703Z,49.43
2022-07-27T05:13:17.234Z,49.57
2022-07-27T05:16:02.841Z,49.58
2022-07-27T05:18:50.918Z,49.38
2022-07-27T05:21:36.275Z,49.51
2022-07-27T05:24:22.092Z,49.45
2022-07-27T05:27:07.650Z,49.26
2022-07-27T05:29:53.348Z,49.32
2022-07-27T05:32:38.911Z,49.44
2022-07-27T05:35:24.327Z,49.15
2022-07-27T05:38:09.859Z,49.42
2022-07-27T05:40:55.271Z,49.75
2022-07-27T05:43:40.553Z,49.53
2022-07-27T05:46:29.635Z,49.14
2022-07-27T05:49:18.377Z,48.98
2022-07-27T05:52:03.647Z,49.44
2022-07-27T05:54:49.055Z,48.91
2022-07-27T05:57:35.185Z,49.29
2022-07-27T06:00:20.697Z,48.93
2022-07-27T06:03:06.271Z,48.89
2022-07-27T06:05:52.146Z,48.96
2022-07-27T06:08:38.173Z,48.89
2022-07-27T06:11:23.525Z,49.19
2022-07-27T06:14:08.812Z,48.93
2022-07-27T06:16:54.865Z,49.29
2022-07-27T06:19:40.380Z,48.82
2022-07-27T06:22:26.319Z,48.82
2022-07-27T06:25:12.319Z,48.61
2022-07-27T06:27:57.838Z,48.17
2022-07-27T06:30:43.874Z,48.45
2022-07-27T06:33:30.897Z,48.16
2022-07-27T06:36:16.820Z,48.26
2022-07-27T06:39:02.595Z,48.50
2022-07-27T06:41:48.225Z,48.09
2022-07-27T06:44:34.432Z,48.00
2022-07-27T06:47:19.911Z,48.20
2022-07-27T06:50:06.583Z,47.97
2022-07-27T06:52:52.755Z,48.04
2022-07-27T06:55:38.232Z,48.20
2022-07-27T06:58:24.250Z,47.63
2022-07-27T07:01:09.781Z,47.12
2022-07-27T07:03:58.089Z,46.97
2022-07-27T07:06:44.500Z,46.73
2022-07-27T07:09:32.654Z,46.38
2022-07-27T07:12:21.367Z,46.03
2022-07-27T07:15:09.189Z,46.00
2022-07-27T07:17:57.370Z,45.93
2022-07-27T07:20:46.636Z,45.67
2022-07-27T07:23:35.222Z,45.63
2022-07-27T07:26:23.815Z,45.48
2022-07-27T07:29:12.581Z,45.19
2022-07-27T07:32:01.649Z,45.46
2022-07-27T07:34:48.396Z,44.67
2022-07-27T07:37:35.489Z,44.74
2022-07-27T07:43:27.366Z,44.13
2022-07-27T07:46:12.884Z,44.26
2022-07-27T07:48:58.121Z,44.14
2022-07-27T07:51:43.574Z,44.02
2022-07-27T07:54:28.823Z,43.58
2022-07-27T07:57:14.111Z,43.78
2022-07-27T07:59:59.933Z,43.41
2022-07-27T08:02:51.446Z,43.11
2022-07-27T08:05:37.637Z,42.61
2022-07-27T08:08:24.692Z,42.62
2022-07-27T08:11:10.784Z,42.67
2022-07-27T08:13:56.260Z,42.45
2022-07-27T08:16:41.695Z,42.69
2022-07-27T08:19:27.265Z,43.50
2022-07-27T08:22:13.089Z,42.97
2022-07-27T08:24:58.710Z,43.03
2022-07-27T08:27:43.932Z,43.02
2022-07-27T08:30:33.877Z,42.52
2022-07-27T08:33:19.419Z,42.76
2022-07-27T08:36:04.916Z,42.61
2022-07-27T08:38:50.547Z,42.12
2022-07-27T08:41:42.071Z,41.93
2022-07-27T08:44:29.787Z,42.05
2022-07-27T08:47:16.080Z,41.76
2022-07-27T08:50:03.350Z,41.70
2022-07-27T08:53:00.603Z,41.74
2022-07-27T08:55:47.745Z,42.51
2022-07-27T08:58:33.186Z,42.08
2022-07-27T09:01:19.240Z,41.39
2022-07-27T09:04:04.717Z,41.15
2022-07-27T09:06:53.161Z,40.70
2022-07-27T09:09:49.426Z,40.60
2022-07-27T09:12:35.939Z,41.23
2022-07-27T09:15:21.434Z,40.71
2022-07-27T09:18:21.077Z,40.94
2022-07-27T09:21:24.473Z,40.39
2022-07-27T09:24:36.766Z,39.67
2022-07-27T09:27:30.473Z,39.78
2022-07-27T09:30:18.988Z,39.21
2022-07-27T09:33:06.602Z,38.21
2022-07-27T09:35:59.574Z,38.56
2022-07-27T09:39:01.669Z,38.36
2022-07-27T09:41:52.274Z,38.41
2022-07-27T09:44:45.008Z,39.24
2022-07-27T09:47:32.078Z,38.56
2022-07-27T09:50:20.825Z,38.79
2022-07-27T09:53:40.791Z,38.94
2022-07-27T09:56:32.945Z,38.57
2022-07-27T09:59:19.581Z,38.02
2022-07-27T10:02:05.416Z,37.60
2022-07-27T10:04:50.958Z,38.16
2022-07-27T10:07:36.748Z,37.70
2022-07-27T10:10:23.531Z,38.41
2022-07-27T10:13:08.911Z,39.30
2022-07-27T10:15:55.305Z,38.67
2022-07-27T10:18:55.688Z,38.96
2022-07-27T10:21:45.205Z,39.05
2022-07-27T10:24:34.781Z,39.34
2022-07-27T10:27:20.767Z,39.52
2022-07-27T10:30:06.729Z,39.65
2022-07-27T10:32:52.280Z,40.00
2022-07-27T10:35:37.602Z,39.77
2022-07-27T10:38:23.282Z,40.53
2022-07-27T10:41:34.934Z,40.17
2022-07-27T10:44:23.216Z,39.96
2022-07-27T10:47:08.391Z,39.52
2022-07-27T10:50:16.363Z,39.33
2022-07-27T10:53:07.359Z,39.70
2022-07-27T10:55:53.359Z,39.36
2022-07-27T10:58:39.373Z,39.46
2022-07-27T11:01:25.115Z,39.36
2022-07-27T11:04:11.161Z,39.08
2022-07-27T11:10:07.350Z,38.87
2022-07-27T11:12:55.113Z,38.98
2022-07-27T11:15:59.768Z,39.54
2022-07-27T11:19:05.285Z,38.92
2022-07-27T11:21:52.513Z,39.14
2022-07-27T11:24:37.840Z,39.42
2022-07-27T11:27:25.342Z,38.99
2022-07-27T11:30:25.853Z,38.83
2022-07-27T11:33:11.369Z,38.64
2022-07-27T11:36:02.224Z,39.04
2022-07-27T11:38:54.767Z,38.71
2022-07-27T11:42:08.011Z,39.05
2022-07-27T11:44:47.652Z,38.88
2022-07-27T11:47:34.194Z,38.80
2022-07-27T11:50:19.727Z,38.47
2022-07-27T11:53:06.820Z,38.25
2022-07-27T11:55:52.836Z,38.20
2022-07-27T11:59:01.534Z,38.35
2022-07-27T12:01:53.934Z,38.00
2022-07-27T12:04:42.419Z,37.72
2022-07-27T12:07:33.283Z,37.46
2022-07-27T12:10:20.264Z,37.85
2022-07-27T12:13:06.257Z,37.50
2022-07-27T12:16:02.811Z,37.55
2022-07-27T12:18:48.456Z,37.98
2022-07-27T12:21:33.928Z,37.91
2022-07-27T12:24:19.895Z,37.89
2022-07-27T12:27:11.934Z,37.95
2022-07-27T12:30:16.517Z,37.93
2022-07-27T12:33:04.523Z,37.97
2022-07-27T12:35:50.498Z,37.29
2022-07-27T12:38:43.645Z,36.71
2022-07-27T12:41:32.581Z,36.58
2022-07-27T12:44:18.185Z,36.41
2022-07-27T12:47:27.644Z,37.11
2022-07-27T12:50:19.821Z,37.27
2022-07-27T12:53:05.638Z,37.47
2022-07-27T12:55:51.304Z,37.62
2022-07-27T12:58:37.477Z,37.77
2022-07-27T13:01:22.965Z,38.24
2022-07-27T13:04:08.728Z,37.87
2022-07-27T13:06:54.100Z,38.07
2022-07-27T13:10:02.967Z,38.01
2022-07-27T13:12:46.669Z,38.21
2022-07-27T13:15:32.069Z,38.32
2022-07-27T13:18:22.852Z,38.33
2022-07-27T13:21:09.408Z,38.13
2022-07-27T13:23:54.915Z,37.75
2022-07-27T13:26:42.084Z,37.94
2022-07-27T13:29:28.538Z,37.98
2022-07-27T13:32:14.164Z,37.87
2022-07-27T13:35:04.563Z,37.83
2022-07-27T13:37:49.901Z,37.75
2022-07-27T13:40:35.173Z,37.98
2022-07-27T13:43:20.492Z,37.98
2022-07-27T13:46:08.438Z,37.63
2022-07-27T13:48:53.666Z,37.74
2022-07-27T13:51:38.893Z,37.69
2022-07-27T13:54:24.714Z,37.98
2022-07-27T13:57:10.301Z,37.52
2022-07-27T13:59:57.655Z,37.22
2022-07-27T14:02:44.767Z,37.46
2022-07-27T14:05:31.277Z,37.40
2022-07-27T14:08:18.863Z,37.87
2022-07-27T14:11:04.516Z,37.75
2022-07-27T14:13:50.391Z,37.95
2022-07-27T14:17:01.045Z,37.48
2022-07-27T14:19:50.241Z,37.51
2022-07-27T14:22:35.759Z,37.89
2022-07-27T14:25:21.317Z,38.27
2022-07-27T14:28:06.640Z,37.78
2022-07-27T14:30:55.836Z,37.74
2022-07-27T14:33:41.978Z,37.25
2022-07-27T14:36:27.302Z,37.08
2022-07-27T14:39:13.342Z,36.55
2022-07-27T14:41:59.029Z,36.90
2022-07-27T14:44:47.620Z,37.16
2022-07-27T14:47:33.389Z,37.38
2022-07-27T14:50:19.092Z,37.27
2022-07-27T14:53:05.097Z,37.37
2022-07-27T14:55:50.690Z,37.29
2022-07-27T14:58:36.089Z,37.58
2022-07-27T15:01:21.555Z,39.07
2022-07-27T15:04:06.857Z,38.79
2022-07-27T15:06:52.522Z,37.86
2022-07-27T15:09:37.729Z,37.33
2022-07-27T15:12:23.108Z,37.31
2022-07-27T15:15:09.104Z,37.23
2022-07-27T15:17:54.649Z,37.09
2022-07-27T15:20:40.608Z,37.46
2022-07-27T15:23:26.635Z,37.38
2022-07-27T15:26:13.191Z,37.38
2022-07-27T15:28:59.118Z,37.51
2022-07-27T15:31:44.722Z,37.50
2022-07-27T15:34:30.548Z,37.39
2022-07-27T15:37:16.405Z,37.08
2022-07-27T15:40:22.129Z,37.58
2022-07-27T15:43:12.231Z,37.35
2022-07-27T15:45:57.932Z,37.50
2022-07-27T15:48:43.219Z,37.22
2022-07-27T15:51:28.815Z,37.44
2022-07-27T15:54:15.391Z,38.17
2022-07-27T15:57:01.054Z,37.05
2022-07-27T15:59:46.687Z,36.84
2022-07-27T16:02:32.391Z,37.27
2022-07-27T16:05:20.451Z,36.36
2022-07-27T16:08:09.407Z,36.04
2022-07-27T16:10:55.112Z,35.96
2022-07-27T16:13:40.652Z,35.88
2022-07-27T16:16:30.676Z,36.22
2022-07-27T16:19:17.138Z,35.89
2022-07-27T16:22:04.092Z,35.98
2022-07-27T16:24:49.747Z,35.81
2022-07-27T16:27:35.254Z,36.26
2022-07-27T16:30:21.717Z,35.99
2022-07-27T16:33:07.521Z,36.27
2022-07-27T16:35:53.364Z,35.90
2022-07-27T16:38:48.020Z,36.10
2022-07-27T16:41:35.742Z,35.96
2022-07-27T16:44:21.629Z,35.34
2022-07-27T16:47:09.667Z,36.16
2022-07-27T16:49:56.090Z,35.58
2022-07-27T16:52:42.022Z,35.57
2022-07-27T16:55:28.589Z,35.64
2022-07-27T16:58:14.238Z,35.60
2022-07-27T17:01:00.679Z,35.59
2022-07-27T17:03:48.971Z,35.65
2022-07-27T17:06:35.417Z,36.22
2022-07-27T17:09:20.857Z,35.90
2022-07-27T17:12:06.967Z,36.17
2022-07-27T17:14:55.249Z,35.93
2022-07-27T17:17:40.705Z,35.72
2022-07-27T17:20:33.008Z,36.50
2022-07-27T17:23:21.284Z,35.64
2022-07-27T17:26:08.064Z,35.68
2022-07-27T17:28:54.073Z,35.59
2022-07-27T17:31:39.471Z,35.86
2022-07-27T17:34:24.728Z,37.01
2022-07-27T17:37:10.313Z,36.88
2022-07-27T17:39:55.729Z,36.90
2022-07-27T17:42:41.521Z,36.31
2022-07-27T17:45:27.466Z,36.45
2022-07-27T17:48:13.430Z,36.57
2022-07-27T17:50:58.745Z,36.69
2022-07-27T17:53:44.264Z,36.58
2022-07-27T17:56:30.898Z,36.59
2022-07-27T17:59:37.067Z,37.01
2022-07-27T18:02:25.264Z,36.81
2022-07-27T18:05:11.528Z,37.17
2022-07-27T18:07:57.573Z,36.87
2022-07-27T18:10:45.226Z,37.02
2022-07-27T18:13:37.945Z,36.75
2022-07-27T18:16:26.732Z,36.80
2022-07-27T18:19:13.800Z,36.80
2022-07-27T18:21:59.962Z,36.96
2022-07-27T18:24:48.048Z,36.96
2022-07-27T18:27:35.790Z,36.80
2022-07-27T18:30:22.716Z,36.79
2022-07-27T18:33:08.121Z,36.74
2022-07-27T18:35:54.587Z,36.55
2022-07-27T18:38:42.240Z,36.72
2022-07-27T18:41:28.403Z,36.71
2022-07-27T18:44:13.914Z,36.40
2022-07-27T18:46:59.243Z,36.59
2022-07-27T18:49:44.538Z,35.96
2022-07-27T18:52:30.079Z,36.21
2022-07-27T18:55:18.193Z,36.03
2022-07-27T18:58:04.197Z,36.34
2022-07-27T19:00:49.602Z,35.98
2022-07-27T19:03:36.197Z,36.12
2022-07-27T19:06:22.453Z,35.83
2022-07-27T19:09:10.169Z,36.01
2022-07-27T19:11:55.672Z,36.17
2022-07-27T19:14:41.230Z,36.63
2022-07-27T19:17:27.462Z,35.44
2022-07-27T19:20:15.543Z,35.70
2022-07-27T19:23:00.959Z,35.33
2022-07-27T19:25:46.611Z,35.86
2022-07-27T19:28:32.181Z,36.34
2022-07-27T19:31:22.436Z,35.90
2022-07-27T19:34:09.448Z,35.88
2022-07-27T19:36:54.952Z,35.64
2022-07-27T19:40:02.610Z,35.77
2022-07-27T19:42:46.228Z,37.60
2022-07-27T19:45:31.862Z,35.75
2022-07-27T19:48:17.216Z,35.88
2022-07-27T19:51:06.859Z,36.38
2022-07-27T19:53:53.220Z,35.77
2022-07-27T19:56:38.544Z,36.16
2022-07-27T19:59:23.694Z,36.10
2022-07-27T20:02:09.285Z,36.09
2022-07-27T20:04:54.633Z,35.59
2022-07-27T20:07:39.903Z,35.79
2022-07-27T20:10:26.042Z,35.99
2022-07-27T20:13:11.771Z,36.83
2022-07-27T20:15:57.261Z,35.74
2022-07-27T20:18:42.598Z,35.77
2022-07-27T20:21:27.800Z,35.93
2022-07-27T20:24:14.135Z,35.70
2022-07-27T20:26:59.517Z,35.78
2022-07-27T20:29:45.022Z,35.67
2022-07-27T20:32:30.136Z,36.00
2022-07-27T20:35:16.175Z,35.97
2022-07-27T20:38:01.774Z,36.05
2022-07-27T20:40:46.979Z,35.73
2022-07-27T20:43:32.871Z,35.80
2022-07-27T20:46:18.607Z,35.94
2022-07-27T20:49:04.797Z,36.11
2022-07-27T20:51:50.636Z,36.15
2022-07-27T20:54:38.420Z,36.15
2022-07-27T20:57:23.803Z,36.42
2022-07-27T21:00:10.611Z,36.12
2022-07-27T21:02:56.607Z,36.28
2022-07-27T21:05:42.262Z,36.37
2022-07-27T21:08:28.678Z,36.03
2022-07-27T21:11:14.557Z,36.18
2022-07-27T21:14:01.149Z,36.09
2022-07-27T21:16:46.593Z,36.01
2022-07-27T21:19:32.326Z,36.04
2022-07-27T21:22:17.595Z,36.09
2022-07-27T21:25:03.368Z,36.17
2022-07-27T21:27:50.282Z,36.19
2022-07-27T21:30:36.415Z,36.65
2022-07-27T21:33:21.807Z,36.19
2022-07-27T21:36:07.843Z,36.06
2022-07-27T21:38:53.398Z,35.95
2022-07-27T21:41:39.181Z,36.12
2022-07-27T21:44:24.695Z,36.05
2022-07-27T21:47:13.725Z,35.82
2022-07-27T21:49:59.911Z,35.98
2022-07-27T21:52:45.054Z,35.93
2022-07-27T21:55:30.276Z,36.17
2022-07-27T21:58:16.560Z,36.04
2022-07-27T22:01:01.927Z,35.73
2022-07-27T22:03:47.374Z,35.95
2022-07-27T22:06:32.554Z,36.33
2022-07-27T22:09:20.108Z,36.31
2022-07-27T22:12:06.047Z,36.32
2022-07-27T22:14:51.503Z,35.66
2022-07-27T22:17:46.147Z,36.10
2022-07-27T22:20:36.596Z,36.09
2022-07-27T22:23:21.972Z,36.23
2022-07-27T22:26:07.276Z,35.87
2022-07-27T22:28:52.673Z,35.76
2022-07-27T22:31:38.263Z,35.89
2022-07-27T22:34:23.529Z,36.09
2022-07-27T22:37:09.193Z,35.96
2022-07-27T22:39:54.816Z,36.02
2022-07-27T22:42:40.036Z,36.10
2022-07-27T22:45:26.102Z,36.11
2022-07-27T22:48:12.028Z,36.13
2022-07-27T22:50:57.511Z,36.27
2022-07-27T22:53:42.961Z,36.66
2022-07-27T22:56:28.186Z,36.62
2022-07-27T22:59:13.879Z,36.71
2022-07-27T23:02:00.097Z,36.78
2022-07-27T23:04:45.754Z,36.68
2022-07-27T23:07:31.385Z,36.70
2022-07-27T23:10:35.122Z,36.65
2022-07-27T23:13:22.936Z,37.05
2022-07-27T23:16:08.251Z,36.93
2022-07-27T23:18:54.831Z,36.96
2022-07-27T23:21:41.752Z,37.10
2022-07-27T23:24:29.061Z,37.25
2022-07-27T23:27:15.123Z,37.13
2022-07-27T23:30:00.494Z,37.26
2022-07-27T23:32:45.790Z,37.17
2022-07-27T23:35:31.407Z,37.19
2022-07-27T23:38:17.107Z,37.31
2022-07-27T23:41:02.411Z,37.66
2022-07-27T23:43:47.808Z,37.43
2022-07-27T23:46:33.275Z,37.35
2022-07-27T23:49:18.718Z,37.43
2022-07-27T23:52:04.715Z,37.63
2022-07-27T23:54:50.188Z,37.71
2022-07-27T23:57:35.630Z,37.61
